Time;durP1;ratioP1;P1;durP2;ratioP2;P2;SDS_P1;SDS_P2;PMS_P1;PMS_P2;Temp;Humidity;BMP_temperature;BMP_pressure;BME280_temperature;BME280_humidity;BME280_pressure;Samples;Min_cycle;Max_cycle;Signal;HPM_P1;HPM_P2
2023/05/26 00:02:24;;;;;;;;;;;21.10;44.90;;;;;;5079298;28;20280;-54
2023/05/26 00:04:50;;;;;;;;;;;21.10;45.10;;;;;;5065305;28;19999;-54
2023/05/26 00:07:16;;;;;;;;;;;21.00;45.00;;;;;;5091067;28;20010;-54
2023/05/26 00:09:41;;;;;;;;;;;21.10;45.10;;;;;;5091173;28;19908;-54
2023/05/26 00:12:07;;;;;;;;;;;21.00;45.10;;;;;;5088604;28;19918;-54
2023/05/26 00:14:32;;;;;;;;;;;21.00;45.10;;;;;;5067383;28;19916;-54
2023/05/26 00:16:58;;;;;;;;;;;21.00;45.00;;;;;;5078820;28;20388;-54
2023/05/26 00:19:24;;;;;;;;;;;21.00;44.90;;;;;;5083779;28;19919;-54
2023/05/26 00:21:50;;;;;;;;;;;21.00;45.20;;;;;;5080299;28;19912;-54
2023/05/26 00:24:15;;;;;;;;;;;21.00;45.20;;;;;;5079458;28;19912;-54
2023/05/26 00:26:41;;;;;;;;;;;21.00;45.10;;;;;;5091029;28;19960;-54
2023/05/26 00:29:06;;;;;;;;;;;21.00;45.20;;;;;;5113168;28;19961;-54
2023/05/26 00:31:32;;;;;;;;;;;21.00;44.90;;;;;;5073713;28;20077;-55
2023/05/26 00:33:57;;;;;;;;;;;21.00;44.80;;;;;;5094257;28;19916;-54
2023/05/26 00:36:23;;;;;;;;;;;21.00;45.10;;;;;;5091618;28;20010;-55
2023/05/26 00:38:48;;;;;;;;;;;21.00;44.80;;;;;;5091829;28;20348;-54
2023/05/26 00:41:14;;;;;;;;;;;21.00;44.80;;;;;;5093589;28;19916;-54
2023/05/26 00:43:39;;;;;;;;;;;20.90;44.80;;;;;;5095384;28;20268;-54
2023/05/26 00:46:05;;;;;;;;;;;21.00;45.10;;;;;;5076669;28;19912;-53
2023/05/26 00:48:30;;;;;;;;;;;21.00;45.00;;;;;;5091914;28;19959;-54
2023/05/26 00:50:56;;;;;;;;;;;21.00;45.00;;;;;;5087760;28;19913;-54
2023/05/26 00:53:22;;;;;;;;;;;20.90;44.90;;;;;;5079910;28;19908;-54
2023/05/26 00:55:49;;;;;;;;;;;20.90;44.80;;;;;;5091911;28;19916;-54
2023/05/26 00:58:14;;;;;;;;;;;20.90;44.80;;;;;;5060579;28;20331;-54
2023/05/26 01:00:40;;;;;;;;;;;20.90;44.90;;;;;;5074461;28;19920;-54
2023/05/26 01:03:05;;;;;;;;;;;20.90;45.00;;;;;;5083833;28;19912;-54
2023/05/26 01:05:31;;;;;;;;;;;20.90;44.70;;;;;;5075477;28;19915;-54
2023/05/26 01:07:56;;;;;;;;;;;20.80;44.20;;;;;;5076801;28;19908;-54
2023/05/26 01:10:22;;;;;;;;;;;20.90;44.50;;;;;;5093028;28;19908;-55
2023/05/26 01:12:50;;;;;;;;;;;20.80;44.60;;;;;;5088988;28;20429;-54
2023/05/26 01:15:15;;;;;;;;;;;20.80;44.60;;;;;;5058021;28;19973;-54
2023/05/26 01:17:43;;;;;;;;;;;20.90;44.30;;;;;;5076456;28;20003;-54
2023/05/26 01:20:11;;;;;;;;;;;20.90;44.30;;;;;;5092528;28;19970;-55
2023/05/26 01:22:50;;;;;;;;;;;20.90;44.40;;;;;;5094502;28;20331;-54
2023/05/26 01:25:15;;;;;;;;;;;20.90;44.40;;;;;;5087864;28;19920;-54
2023/05/26 01:27:44;;;;;;;;;;;20.90;44.30;;;;;;5081757;28;19964;-54
2023/05/26 01:30:10;;;;;;;;;;;20.90;44.00;;;;;;5089632;28;20364;-55
2023/05/26 01:32:35;;;;;;;;;;;20.90;43.70;;;;;;5074111;28;19928;-54
2023/05/26 01:35:00;;;;;;;;;;;21.00;43.70;;;;;;5093941;28;19998;-54
2023/05/26 01:37:26;;;;;;;;;;;21.00;43.80;;;;;;5065915;28;19912;-54
2023/05/26 01:39:51;;;;;;;;;;;21.00;43.70;;;;;;5092821;28;20364;-54
2023/05/26 01:42:27;;;;;;;;;;;21.00;43.50;;;;;;5075780;28;19970;-54
2023/05/26 01:44:54;;;;;;;;;;;21.00;43.50;;;;;;5074696;28;20253;-54
2023/05/26 01:47:19;;;;;;;;;;;21.00;43.70;;;;;;5070037;28;20023;-54
2023/05/26 01:49:45;;;;;;;;;;;21.00;43.50;;;;;;5073539;28;19919;-54
2023/05/26 01:52:12;;;;;;;;;;;21.00;43.30;;;;;;5055590;28;20361;-54
2023/05/26 01:54:47;;;;;;;;;;;21.00;43.30;;;;;;5071784;28;19913;-54
2023/05/26 01:57:13;;;;;;;;;;;21.00;43.20;;;;;;5088228;28;19916;-54
2023/05/26 01:59:38;;;;;;;;;;;21.00;43.40;;;;;;5091544;28;20386;-54
2023/05/26 02:02:04;;;;;;;;;;;21.00;43.20;;;;;;5072331;28;19917;-54
2023/05/26 02:04:29;;;;;;;;;;;21.00;43.30;;;;;;5081018;28;19920;-54
2023/05/26 02:06:55;;;;;;;;;;;21.00;43.20;;;;;;5092592;28;19916;-54
2023/05/26 02:09:20;;;;;;;;;;;21.00;43.10;;;;;;5092820;28;19909;-55
2023/05/26 02:11:47;;;;;;;;;;;21.00;43.10;;;;;;5093408;28;19961;-54
2023/05/26 02:14:12;;;;;;;;;;;21.00;43.10;;;;;;5090956;28;20379;-54
2023/05/26 02:16:39;;;;;;;;;;;21.00;43.10;;;;;;5085121;28;19912;-54
2023/05/26 02:19:04;;;;;;;;;;;20.90;43.00;;;;;;5089115;28;19961;-54
2023/05/26 02:21:30;;;;;;;;;;;20.90;42.90;;;;;;5075074;28;19912;-54
2023/05/26 02:23:56;;;;;;;;;;;20.90;43.00;;;;;;5093199;28;19914;-54
2023/05/26 02:26:21;;;;;;;;;;;20.90;43.00;;;;;;5091741;28;19912;-54
2023/05/26 02:28:49;;;;;;;;;;;20.90;43.60;;;;;;5087667;28;19913;-54
2023/05/26 02:31:14;;;;;;;;;;;20.90;42.90;;;;;;5079611;28;19916;-54
2023/05/26 02:33:42;;;;;;;;;;;20.90;42.80;;;;;;5092708;28;19908;-54
2023/05/26 02:36:08;;;;;;;;;;;20.80;42.70;;;;;;5081315;28;19994;-55
2023/05/26 02:38:33;;;;;;;;;;;20.90;43.00;;;;;;5077823;28;20344;-54
2023/05/26 02:40:59;;;;;;;;;;;20.90;43.50;;;;;;5090890;28;19920;-54
2023/05/26 02:43:24;;;;;;;;;;;20.80;42.80;;;;;;5092990;28;20202;-55
2023/05/26 02:45:50;;;;;;;;;;;20.80;42.70;;;;;;5091717;28;19981;-54
2023/05/26 02:48:15;;;;;;;;;;;20.80;42.80;;;;;;5072616;28;19947;-54
2023/05/26 02:50:41;;;;;;;;;;;20.80;42.70;;;;;;5091306;28;19925;-54
2023/05/26 02:53:06;;;;;;;;;;;20.80;42.80;;;;;;5086852;28;19915;-54
2023/05/26 02:55:32;;;;;;;;;;;20.80;42.70;;;;;;5087853;28;20034;-54
2023/05/26 02:57:57;;;;;;;;;;;20.80;42.90;;;;;;5087316;28;19982;-55
2023/05/26 03:00:23;;;;;;;;;;;20.80;42.80;;;;;;5091357;28;20001;-54
2023/05/26 03:02:48;;;;;;;;;;;20.80;42.70;;;;;;5089711;28;20022;-54
2023/05/26 03:05:13;;;;;;;;;;;20.70;42.70;;;;;;5081515;28;19923;-54
2023/05/26 03:07:39;;;;;;;;;;;20.80;43.00;;;;;;5072917;28;20029;-55
2023/05/26 03:10:05;;;;;;;;;;;20.70;42.90;;;;;;5088673;28;20029;-54
2023/05/26 03:12:30;;;;;;;;;;;20.70;42.80;;;;;;5088942;28;19980;-54
2023/05/26 03:14:56;;;;;;;;;;;20.70;43.00;;;;;;5089856;28;19912;-54
2023/05/26 03:17:22;;;;;;;;;;;20.70;42.80;;;;;;5090131;28;19908;-54
2023/05/26 03:19:47;;;;;;;;;;;20.70;42.80;;;;;;5082019;28;19920;-54
2023/05/26 03:22:13;;;;;;;;;;;20.70;42.70;;;;;;5089694;28;19962;-54
2023/05/26 03:24:38;;;;;;;;;;;20.70;42.90;;;;;;5084436;28;19912;-54
2023/05/26 03:27:04;;;;;;;;;;;20.70;42.70;;;;;;5089157;28;19923;-55
2023/05/26 03:29:30;;;;;;;;;;;20.70;42.70;;;;;;5072043;28;19913;-54
2023/05/26 03:31:56;;;;;;;;;;;20.70;42.60;;;;;;5088435;28;20330;-54
2023/05/26 03:34:23;;;;;;;;;;;20.70;42.70;;;;;;5083975;28;19912;-54
2023/05/26 03:36:49;;;;;;;;;;;20.70;42.70;;;;;;5090109;28;20330;-54
2023/05/26 03:39:15;;;;;;;;;;;20.70;42.70;;;;;;5090849;28;19916;-54
2023/05/26 03:41:40;;;;;;;;;;;20.60;42.60;;;;;;5089404;28;19923;-54
2023/05/26 03:44:06;;;;;;;;;;;20.70;42.60;;;;;;5084237;28;20300;-54
2023/05/26 03:46:31;;;;;;;;;;;20.60;42.60;;;;;;5088833;28;20275;-54
2023/05/26 03:48:57;;;;;;;;;;;20.60;42.50;;;;;;5089108;28;19912;-54
2023/05/26 03:51:22;;;;;;;;;;;20.70;42.40;;;;;;5090655;28;19934;-54
2023/05/26 03:53:48;;;;;;;;;;;20.60;42.40;;;;;;5065843;28;19934;-54
2023/05/26 03:56:13;;;;;;;;;;;20.70;42.40;;;;;;5077188;28;20007;-54
2023/05/26 03:58:39;;;;;;;;;;;20.70;42.40;;;;;;5078924;28;20372;-54
2023/05/26 04:01:04;;;;;;;;;;;20.70;42.30;;;;;;5088733;28;20368;-55
2023/05/26 04:03:30;;;;;;;;;;;20.70;42.20;;;;;;5088937;28;19912;-54
2023/05/26 04:05:59;;;;;;;;;;;20.60;42.20;;;;;;5091357;28;19947;-54
2023/05/26 04:08:28;;;;;;;;;;;20.60;42.30;;;;;;5073178;28;19916;-54
2023/05/26 04:10:54;;;;;;;;;;;20.60;42.30;;;;;;5094270;28;19944;-54
2023/05/26 04:13:19;;;;;;;;;;;20.60;42.40;;;;;;5095202;28;20509;-54
2023/05/26 04:15:45;;;;;;;;;;;20.70;42.40;;;;;;5070319;28;19955;-54
2023/05/26 04:18:10;;;;;;;;;;;20.60;42.30;;;;;;5090984;28;19923;-54
2023/05/26 04:20:36;;;;;;;;;;;20.60;42.30;;;;;;5075866;28;19938;-54
2023/05/26 04:23:01;;;;;;;;;;;20.70;42.30;;;;;;5091480;28;20049;-55
2023/05/26 04:25:27;;;;;;;;;;;20.70;42.30;;;;;;5089257;28;19912;-54
2023/05/26 04:27:56;;;;;;;;;;;20.60;42.30;;;;;;5082988;28;19935;-54
2023/05/26 04:30:22;;;;;;;;;;;20.50;42.50;;;;;;5072339;28;19912;-54
2023/05/26 04:32:48;;;;;;;;;;;20.50;42.60;;;;;;5093491;28;19908;-54
2023/05/26 04:35:13;;;;;;;;;;;20.50;42.60;;;;;;5088346;28;19934;-54
2023/05/26 04:37:40;;;;;;;;;;;20.50;42.50;;;;;;5084528;28;19912;-54
2023/05/26 04:40:09;;;;;;;;;;;20.60;42.50;;;;;;5072849;28;19927;-54
2023/05/26 04:42:38;;;;;;;;;;;20.60;42.60;;;;;;5069494;28;20002;-54
2023/05/26 04:45:04;;;;;;;;;;;20.50;42.60;;;;;;5094170;28;20455;-54
2023/05/26 04:47:32;;;;;;;;;;;20.50;42.30;;;;;;5091563;28;20322;-54
2023/05/26 04:50:00;;;;;;;;;;;20.50;42.50;;;;;;5088640;28;20011;-54
2023/05/26 04:52:26;;;;;;;;;;;20.50;42.50;;;;;;5086483;28;20380;-54
2023/05/26 04:54:51;;;;;;;;;;;20.50;42.30;;;;;;5080309;28;19919;-54
2023/05/26 04:57:18;;;;;;;;;;;20.50;42.50;;;;;;5094213;28;19919;-54
2023/05/26 04:59:44;;;;;;;;;;;20.50;42.30;;;;;;5085608;28;19927;-54
2023/05/26 05:02:10;;;;;;;;;;;20.50;42.30;;;;;;5089999;28;19962;-54
2023/05/26 05:04:35;;;;;;;;;;;20.50;42.40;;;;;;5092917;28;19955;-55
2023/05/26 05:07:01;;;;;;;;;;;20.40;42.20;;;;;;5075849;28;19942;-54
2023/05/26 05:09:26;;;;;;;;;;;20.40;42.20;;;;;;5090500;28;19922;-54
2023/05/26 05:11:52;;;;;;;;;;;20.40;42.10;;;;;;5090415;28;20010;-54
2023/05/26 05:14:17;;;;;;;;;;;20.50;42.20;;;;;;5089818;28;19964;-54
2023/05/26 05:16:43;;;;;;;;;;;20.50;42.30;;;;;;5090312;28;20485;-54
2023/05/26 05:19:09;;;;;;;;;;;20.50;42.30;;;;;;5069958;28;20340;-54
2023/05/26 05:21:34;;;;;;;;;;;20.40;42.40;;;;;;5091874;28;19967;-54
2023/05/26 05:23:59;;;;;;;;;;;20.50;42.30;;;;;;5086682;28;19920;-54
2023/05/26 05:26:25;;;;;;;;;;;20.50;42.50;;;;;;5087628;28;20415;-55
2023/05/26 05:28:50;;;;;;;;;;;20.40;42.30;;;;;;5084622;28;20287;-54
2023/05/26 05:31:16;;;;;;;;;;;20.40;42.40;;;;;;5092353;28;19912;-54
2023/05/26 05:33:43;;;;;;;;;;;20.40;42.40;;;;;;5088089;28;19918;-54
2023/05/26 05:36:08;;;;;;;;;;;20.40;42.30;;;;;;5087707;28;19912;-54
2023/05/26 05:38:34;;;;;;;;;;;20.40;42.30;;;;;;5087070;28;20376;-54
2023/05/26 05:40:59;;;;;;;;;;;20.40;42.40;;;;;;5088789;28;19928;-54
2023/05/26 05:43:25;;;;;;;;;;;20.50;42.30;;;;;;5071162;28;20585;-54
2023/05/26 05:45:51;;;;;;;;;;;20.50;42.30;;;;;;5054945;28;20334;-54
2023/05/26 05:48:16;;;;;;;;;;;20.40;42.20;;;;;;5082074;28;19970;-54
2023/05/26 05:50:41;;;;;;;;;;;20.40;42.30;;;;;;5081308;28;19916;-54
2023/05/26 05:53:07;;;;;;;;;;;20.40;42.20;;;;;;5089435;28;19940;-54
2023/05/26 05:55:32;;;;;;;;;;;20.40;42.20;;;;;;5072403;28;19912;-55
2023/05/26 05:57:58;;;;;;;;;;;20.40;42.20;;;;;;5089952;28;19916;-54
2023/05/26 06:00:23;;;;;;;;;;;20.40;42.20;;;;;;5073615;28;19920;-55
2023/05/26 06:02:49;;;;;;;;;;;20.40;42.20;;;;;;5093485;28;19912;-54
2023/05/26 06:05:14;;;;;;;;;;;20.40;42.20;;;;;;5090242;28;19965;-54
2023/05/26 06:07:39;;;;;;;;;;;20.40;42.20;;;;;;5069093;28;20388;-54
2023/05/26 06:10:06;;;;;;;;;;;20.40;42.30;;;;;;5084502;28;20015;-54
2023/05/26 06:12:32;;;;;;;;;;;20.40;42.10;;;;;;5065387;28;20396;-54
2023/05/26 06:14:57;;;;;;;;;;;20.40;42.30;;;;;;5070947;28;19913;-54
2023/05/26 06:17:22;;;;;;;;;;;20.40;42.20;;;;;;5071686;28;20011;-54
2023/05/26 06:19:48;;;;;;;;;;;20.40;42.10;;;;;;5081539;28;19923;-54
2023/05/26 06:22:14;;;;;;;;;;;20.40;42.10;;;;;;5091213;28;19919;-54
2023/05/26 06:24:39;;;;;;;;;;;20.40;42.20;;;;;;5077502;28;19916;-54
2023/05/26 06:27:05;;;;;;;;;;;20.40;42.20;;;;;;5093054;28;19977;-54
2023/05/26 06:29:31;;;;;;;;;;;20.30;42.20;;;;;;5084933;28;19912;-54
2023/05/26 06:31:56;;;;;;;;;;;20.40;42.30;;;;;;5079456;28;20403;-55
2023/05/26 06:34:21;;;;;;;;;;;20.30;42.20;;;;;;5066366;28;20394;-54
2023/05/26 06:36:47;;;;;;;;;;;20.30;42.30;;;;;;5084905;28;20288;-55
2023/05/26 06:39:13;;;;;;;;;;;20.40;42.40;;;;;;5071242;28;19912;-54
2023/05/26 06:41:38;;;;;;;;;;;20.30;42.40;;;;;;5072260;28;20384;-54
2023/05/26 06:44:04;;;;;;;;;;;20.30;42.40;;;;;;5076177;28;20007;-54
2023/05/26 06:46:30;;;;;;;;;;;20.30;42.30;;;;;;5090839;28;19916;-55
2023/05/26 06:48:56;;;;;;;;;;;20.40;42.50;;;;;;5090863;28;19916;-54
2023/05/26 06:51:22;;;;;;;;;;;20.30;42.50;;;;;;5081227;28;19958;-55
2023/05/26 06:53:48;;;;;;;;;;;20.30;42.50;;;;;;5090560;28;20397;-55
2023/05/26 06:56:13;;;;;;;;;;;20.30;42.60;;;;;;5090837;28;19937;-55
2023/05/26 06:58:39;;;;;;;;;;;20.40;42.60;;;;;;5090997;28;19981;-54
2023/05/26 07:01:05;;;;;;;;;;;20.30;42.50;;;;;;5048680;28;21547;-52
2023/05/26 07:03:31;;;;;;;;;;;20.30;42.50;;;;;;5046264;28;19912;-54
2023/05/26 07:05:56;;;;;;;;;;;20.40;42.50;;;;;;5090695;28;19921;-54
2023/05/26 07:08:22;;;;;;;;;;;20.30;42.50;;;;;;5084354;28;19927;-54
2023/05/26 07:10:48;;;;;;;;;;;20.40;42.50;;;;;;5083838;28;20225;-54
2023/05/26 07:13:13;;;;;;;;;;;20.40;42.50;;;;;;5091524;28;20008;-54
2023/05/26 07:15:39;;;;;;;;;;;20.30;42.50;;;;;;5080109;28;19913;-53
2023/05/26 07:18:04;;;;;;;;;;;20.40;42.40;;;;;;5078086;28;19916;-54
2023/05/26 07:20:30;;;;;;;;;;;20.40;42.40;;;;;;5084959;28;19924;-54
2023/05/26 07:22:55;;;;;;;;;;;20.40;42.40;;;;;;5092324;28;19912;-53
2023/05/26 07:25:21;;;;;;;;;;;20.40;42.40;;;;;;5084583;28;19912;-53
2023/05/26 07:27:46;;;;;;;;;;;20.30;42.30;;;;;;5085525;28;19998;-54
2023/05/26 07:30:12;;;;;;;;;;;20.30;42.20;;;;;;5054265;28;20028;-55
2023/05/26 07:32:37;;;;;;;;;;;20.40;42.30;;;;;;5058435;28;19920;-54
2023/05/26 07:35:03;;;;;;;;;;;20.40;42.40;;;;;;5085783;28;19920;-54
2023/05/26 07:37:28;;;;;;;;;;;20.40;42.40;;;;;;5058591;28;19990;-54
2023/05/26 07:39:54;;;;;;;;;;;20.40;42.60;;;;;;5091044;28;19994;-54
2023/05/26 07:42:19;;;;;;;;;;;20.40;42.60;;;;;;5084946;28;19916;-54
2023/05/26 07:44:45;;;;;;;;;;;20.50;42.90;;;;;;5086472;28;20372;-53
2023/05/26 07:47:10;;;;;;;;;;;20.50;43.00;;;;;;5092824;28;19916;-53
2023/05/26 07:49:35;;;;;;;;;;;20.50;43.00;;;;;;5088553;28;19947;-54
2023/05/26 07:52:01;;;;;;;;;;;20.50;42.90;;;;;;5083642;28;19912;-54
2023/05/26 07:54:26;;;;;;;;;;;20.50;42.70;;;;;;5086048;28;19920;-53
2023/05/26 07:56:52;;;;;;;;;;;20.50;43.00;;;;;;5087788;28;19963;-54
2023/05/26 07:59:17;;;;;;;;;;;20.50;42.90;;;;;;5094124;28;19912;-53
2023/05/26 08:01:43;;;;;;;;;;;20.60;42.60;;;;;;5063968;28;19920;-54
2023/05/26 08:04:08;;;;;;;;;;;20.60;42.60;;;;;;5086715;28;20394;-54
2023/05/26 08:06:35;;;;;;;;;;;20.60;42.30;;;;;;5083424;28;20007;-54
2023/05/26 08:09:01;;;;;;;;;;;20.60;42.40;;;;;;5092072;28;19958;-55
2023/05/26 08:11:26;;;;;;;;;;;20.60;42.50;;;;;;5090962;28;19951;-54
2023/05/26 08:13:51;;;;;;;;;;;20.60;42.30;;;;;;5094361;28;19919;-54
2023/05/26 08:16:17;;;;;;;;;;;20.60;42.30;;;;;;5085002;28;19915;-53
2023/05/26 08:18:42;;;;;;;;;;;20.60;42.20;;;;;;5087009;28;19919;-54
2023/05/26 08:21:08;;;;;;;;;;;20.60;42.10;;;;;;5090404;28;19912;-55
2023/05/26 08:23:33;;;;;;;;;;;20.60;42.10;;;;;;5085482;28;20825;-54
2023/05/26 08:25:59;;;;;;;;;;;20.70;42.70;;;;;;5066639;28;20369;-55
2023/05/26 08:28:24;;;;;;;;;;;20.70;42.30;;;;;;5054971;28;20310;-55
2023/05/26 08:30:50;;;;;;;;;;;20.70;42.50;;;;;;5089622;28;19920;-54
2023/05/26 08:33:15;;;;;;;;;;;20.70;42.40;;;;;;5089439;28;19916;-54
2023/05/26 08:35:41;;;;;;;;;;;20.80;42.80;;;;;;5089470;28;19965;-55
2023/05/26 08:38:06;;;;;;;;;;;20.80;42.90;;;;;;5072126;28;19912;-55
2023/05/26 08:40:33;;;;;;;;;;;20.80;42.80;;;;;;5084345;28;19920;-54
2023/05/26 08:43:00;;;;;;;;;;;20.80;43.00;;;;;;5070676;28;19908;-54
2023/05/26 08:45:26;;;;;;;;;;;20.80;43.40;;;;;;5074748;28;19924;-54
2023/05/26 08:47:51;;;;;;;;;;;20.80;42.60;;;;;;5094516;28;19916;-54
2023/05/26 08:50:16;;;;;;;;;;;20.90;42.90;;;;;;5084323;28;20007;-54
2023/05/26 08:52:42;;;;;;;;;;;20.80;42.80;;;;;;5078109;28;19951;-54
2023/05/26 08:55:08;;;;;;;;;;;20.90;43.30;;;;;;5089604;28;19912;-53
2023/05/26 08:57:34;;;;;;;;;;;20.90;43.50;;;;;;5070768;28;19912;-52
2023/05/26 08:59:59;;;;;;;;;;;20.90;43.00;;;;;;5082364;28;20617;-54
2023/05/26 09:02:26;;;;;;;;;;;20.90;43.40;;;;;;5085311;28;19970;-55
2023/05/26 09:04:51;;;;;;;;;;;21.00;43.50;;;;;;5054863;28;20309;-53
2023/05/26 09:07:17;;;;;;;;;;;21.00;43.40;;;;;;5056918;28;19916;-53
2023/05/26 09:09:43;;;;;;;;;;;21.00;43.60;;;;;;5054254;28;19940;-54
2023/05/26 09:12:09;;;;;;;;;;;21.00;43.20;;;;;;5085057;28;20288;-54
2023/05/26 09:14:35;;;;;;;;;;;21.00;43.60;;;;;;5085477;28;19950;-55
2023/05/26 09:17:00;;;;;;;;;;;21.00;43.50;;;;;;5058848;28;19951;-53
2023/05/26 09:19:26;;;;;;;;;;;21.00;43.10;;;;;;5063700;28;19962;-54
2023/05/26 09:21:52;;;;;;;;;;;21.00;43.20;;;;;;5087430;28;19969;-54
2023/05/26 09:24:18;;;;;;;;;;;21.00;43.30;;;;;;5078104;28;19994;-55
2023/05/26 09:26:44;;;;;;;;;;;21.10;43.80;;;;;;5084242;28;19916;-54
2023/05/26 09:29:09;;;;;;;;;;;21.10;43.20;;;;;;5080277;28;19927;-54
2023/05/26 09:31:38;;;;;;;;;;;21.10;43.00;;;;;;5064063;28;20439;-54
2023/05/26 09:34:04;;;;;;;;;;;21.10;43.10;;;;;;5055721;28;19947;-54
2023/05/26 09:36:30;;;;;;;;;;;21.10;43.20;;;;;;5068548;28;20292;-54
2023/05/26 09:38:56;;;;;;;;;;;21.10;42.70;;;;;;5070724;28;20344;-54
2023/05/26 09:41:21;;;;;;;;;;;21.10;43.20;;;;;;5086801;28;19916;-54
2023/05/26 09:43:49;;;;;;;;;;;21.10;43.10;;;;;;5089615;28;19913;-54
2023/05/26 09:46:21;;;;;;;;;;;21.10;43.50;;;;;;5064213;28;20012;-54
2023/05/26 09:48:50;;;;;;;;;;;21.10;43.30;;;;;;5081136;28;19972;-54
2023/05/26 09:51:19;;;;;;;;;;;21.10;43.70;;;;;;5092406;28;19912;-53
2023/05/26 09:53:45;;;;;;;;;;;21.20;43.20;;;;;;5087969;28;19930;-55
2023/05/26 09:56:11;;;;;;;;;;;21.20;43.20;;;;;;5090268;28;19916;-55
2023/05/26 09:58:39;;;;;;;;;;;21.20;43.50;;;;;;5090399;28;19986;-54
2023/05/26 10:01:04;;;;;;;;;;;21.20;43.90;;;;;;5086320;28;20680;-55
2023/05/26 10:03:30;;;;;;;;;;;21.20;43.50;;;;;;5071341;28;19916;-54
2023/05/26 10:05:56;;;;;;;;;;;21.20;43.30;;;;;;5084763;28;19923;-55
2023/05/26 10:08:21;;;;;;;;;;;21.20;43.40;;;;;;5081407;28;19919;-53
2023/05/26 10:10:47;;;;;;;;;;;21.30;43.50;;;;;;5078702;28;20372;-54
2023/05/26 10:13:13;;;;;;;;;;;21.30;43.80;;;;;;5064934;28;19950;-54
2023/05/26 10:15:38;;;;;;;;;;;21.30;43.50;;;;;;5081581;28;20457;-54
2023/05/26 10:18:04;;;;;;;;;;;21.30;43.60;;;;;;5087126;28;19932;-54
2023/05/26 10:20:30;;;;;;;;;;;21.30;43.30;;;;;;5066096;28;20058;-54
2023/05/26 10:23:00;;;;;;;;;;;21.30;43.80;;;;;;5079146;28;19969;-55
2023/05/26 10:25:31;;;;;;;;;;;21.30;44.00;;;;;;5063569;28;20420;-54
2023/05/26 10:28:00;;;;;;;;;;;21.30;43.30;;;;;;5076816;28;19920;-54
2023/05/26 10:30:26;;;;;;;;;;;21.30;43.60;;;;;;5078612;28;20002;-53
2023/05/26 10:32:52;;;;;;;;;;;21.40;43.90;;;;;;5053808;28;20002;-52
2023/05/26 10:35:27;;;;;;;;;;;21.40;44.10;;;;;;5082053;28;19955;-53
2023/05/26 10:37:56;;;;;;;;;;;21.40;43.60;;;;;;5080761;28;19912;-55
2023/05/26 10:40:41;;;;;;;;;;;21.40;43.70;;;;;;5083658;28;19923;-56
2023/05/26 10:43:06;;;;;;;;;;;21.40;44.00;;;;;;5081793;28;20338;-54
2023/05/26 10:45:32;;;;;;;;;;;21.40;43.60;;;;;;5064687;28;19920;-55
2023/05/26 10:47:59;;;;;;;;;;;21.50;44.10;;;;;;5063158;28;20291;-54
2023/05/26 10:50:24;;;;;;;;;;;21.50;44.30;;;;;;5078233;28;19927;-54
2023/05/26 10:52:50;;;;;;;;;;;21.50;44.00;;;;;;5081819;28;20300;-55
2023/05/26 10:55:28;;;;;;;;;;;21.50;44.30;;;;;;5085212;28;20394;-53
2023/05/26 10:57:54;;;;;;;;;;;21.50;43.30;;;;;;5089613;28;19961;-54
2023/05/26 11:00:26;;;;;;;;;;;21.50;43.80;;;;;;5088282;28;19928;-54
2023/05/26 11:02:51;;;;;;;;;;;21.50;43.50;;;;;;5079943;28;19912;-55
2023/05/26 11:05:27;;;;;;;;;;;21.50;44.10;;;;;;5088125;28;19966;-55
2023/05/26 11:07:56;;;;;;;;;;;21.60;43.90;;;;;;5076891;28;20470;-55
2023/05/26 11:10:21;;;;;;;;;;;21.60;43.20;;;;;;5052899;28;19969;-55
2023/05/26 11:12:47;;;;;;;;;;;21.60;43.80;;;;;;5080047;28;20271;-54
2023/05/26 11:15:26;;;;;;;;;;;21.70;44.20;;;;;;5081367;28;19916;-55
2023/05/26 11:17:55;;;;;;;;;;;21.70;43.90;;;;;;5080385;28;19924;-54
2023/05/26 11:20:21;;;;;;;;;;;21.70;44.00;;;;;;5078588;28;19915;-54
2023/05/26 11:22:46;;;;;;;;;;;21.70;44.30;;;;;;5075201;28;20648;-54
2023/05/26 11:25:11;;;;;;;;;;;21.70;44.10;;;;;;5066929;28;20668;-54
2023/05/26 11:27:44;;;;;;;;;;;21.70;44.20;;;;;;5081932;28;20326;-53
2023/05/26 11:30:09;;;;;;;;;;;21.70;44.40;;;;;;5078502;28;19920;-54
2023/05/26 11:32:35;;;;;;;;;;;21.70;43.60;;;;;;5080060;28;19916;-54
2023/05/26 11:35:00;;;;;;;;;;;21.80;43.90;;;;;;5081004;28;20268;-53
2023/05/26 11:37:26;;;;;;;;;;;21.80;44.20;;;;;;5078252;28;19920;-54
2023/05/26 11:39:51;;;;;;;;;;;21.80;44.40;;;;;;5087849;28;19927;-54
2023/05/26 11:42:17;;;;;;;;;;;21.70;44.50;;;;;;5080258;28;19923;-54
2023/05/26 11:44:42;;;;;;;;;;;21.80;44.50;;;;;;5087937;28;19953;-53
2023/05/26 11:47:11;;;;;;;;;;;21.80;44.40;;;;;;5086513;28;19922;-53
2023/05/26 11:49:37;;;;;;;;;;;21.80;43.90;;;;;;5088243;28;19916;-53
2023/05/26 11:52:02;;;;;;;;;;;21.70;44.30;;;;;;5072740;28;19922;-54
2023/05/26 11:54:28;;;;;;;;;;;21.80;44.20;;;;;;5090507;28;19951;-54
2023/05/26 11:56:53;;;;;;;;;;;21.80;43.90;;;;;;5062321;28;19912;-53
2023/05/26 11:59:19;;;;;;;;;;;21.80;43.50;;;;;;5062240;28;19930;-53
2023/05/26 12:01:45;;;;;;;;;;;21.80;44.10;;;;;;5069570;28;19925;-54
2023/05/26 12:04:10;;;;;;;;;;;21.80;43.80;;;;;;5082634;28;19916;-54
2023/05/26 12:06:40;;;;;;;;;;;21.80;44.40;;;;;;5090976;28;19923;-53
2023/05/26 12:09:18;;;;;;;;;;;21.80;44.40;;;;;;5084138;28;20427;-53
2023/05/26 12:11:44;;;;;;;;;;;21.80;44.50;;;;;;5070333;28;20400;-53
2023/05/26 12:14:13;;;;;;;;;;;21.80;44.60;;;;;;5051066;28;20022;-53
2023/05/26 12:16:42;;;;;;;;;;;21.80;44.60;;;;;;5084534;28;19920;-53
2023/05/26 12:19:08;;;;;;;;;;;21.80;44.70;;;;;;5083277;28;19919;-53
2023/05/26 12:21:40;;;;;;;;;;;21.80;44.40;;;;;;5054884;28;19915;-53
2023/05/26 12:24:05;;;;;;;;;;;21.80;44.50;;;;;;5080510;28;19918;-53
2023/05/26 12:26:31;;;;;;;;;;;21.80;44.70;;;;;;5083825;28;20377;-54
2023/05/26 12:29:06;;;;;;;;;;;21.80;44.50;;;;;;5083828;28;19926;-54
2023/05/26 12:31:36;;;;;;;;;;;21.80;44.70;;;;;;5079539;28;19967;-54
2023/05/26 12:34:01;;;;;;;;;;;21.80;44.80;;;;;;5083067;28;19931;-54
2023/05/26 12:36:26;;;;;;;;;;;21.80;44.80;;;;;;5080978;28;20392;-54
2023/05/26 12:38:52;;;;;;;;;;;21.80;45.00;;;;;;5082866;28;20410;-52
2023/05/26 12:41:18;;;;;;;;;;;21.80;44.80;;;;;;5081564;28;20437;-54
2023/05/26 12:43:43;;;;;;;;;;;21.80;44.90;;;;;;5072880;28;19916;-53
2023/05/26 12:46:09;;;;;;;;;;;21.80;44.50;;;;;;5046894;28;19920;-53
2023/05/26 12:48:34;;;;;;;;;;;21.90;44.90;;;;;;5080377;28;19934;-53
2023/05/26 12:51:01;;;;;;;;;;;21.90;45.20;;;;;;5076578;28;19916;-54
2023/05/26 12:53:26;;;;;;;;;;;21.90;45.40;;;;;;5082855;28;20042;-53
2023/05/26 12:55:52;;;;;;;;;;;21.90;45.50;;;;;;5067971;28;20019;-53
2023/05/26 12:58:17;;;;;;;;;;;22.00;45.20;;;;;;5075887;28;19912;-54
2023/05/26 13:00:43;;;;;;;;;;;22.00;45.40;;;;;;5060516;28;20288;-53
2023/05/26 13:03:09;;;;;;;;;;;22.00;45.40;;;;;;5083814;28;19919;-53
2023/05/26 13:05:34;;;;;;;;;;;22.00;45.40;;;;;;5056137;28;19919;-53
2023/05/26 13:08:00;;;;;;;;;;;22.00;45.40;;;;;;5058803;28;19921;-53
2023/05/26 13:10:25;;;;;;;;;;;22.10;45.20;;;;;;5077787;28;20469;-54
2023/05/26 13:12:51;;;;;;;;;;;22.10;45.30;;;;;;5078935;28;19920;-54
2023/05/26 13:15:17;;;;;;;;;;;22.00;45.30;;;;;;5077669;28;20016;-54
2023/05/26 13:17:42;;;;;;;;;;;22.10;45.50;;;;;;5083116;28;19931;-53
2023/05/26 13:20:08;;;;;;;;;;;22.10;45.70;;;;;;5064833;28;19923;-54
2023/05/26 13:22:33;;;;;;;;;;;22.10;45.90;;;;;;5085295;28;19970;-54
2023/05/26 13:24:59;;;;;;;;;;;22.10;45.60;;;;;;5082685;28;19916;-53
2023/05/26 13:27:25;;;;;;;;;;;22.10;46.10;;;;;;5082842;28;19916;-55
2023/05/26 13:29:50;;;;;;;;;;;22.10;46.10;;;;;;5081226;28;19912;-54
2023/05/26 13:32:16;;;;;;;;;;;22.10;45.80;;;;;;5077816;28;20376;-53
2023/05/26 13:34:41;;;;;;;;;;;22.10;46.00;;;;;;5078409;28;20367;-54
2023/05/26 13:37:07;;;;;;;;;;;22.10;46.10;;;;;;5080383;28;19916;-53
2023/05/26 13:39:32;;;;;;;;;;;22.20;46.00;;;;;;5082118;28;19920;-54
2023/05/26 13:41:58;;;;;;;;;;;22.10;46.10;;;;;;5089188;28;19955;-54
2023/05/26 13:44:23;;;;;;;;;;;22.10;46.10;;;;;;5087663;28;19920;-54
2023/05/26 13:46:48;;;;;;;;;;;22.20;45.10;;;;;;5071166;28;19927;-55
2023/05/26 13:49:14;;;;;;;;;;;22.10;46.10;;;;;;5079496;28;19936;-54
2023/05/26 13:51:39;;;;;;;;;;;22.20;46.00;;;;;;5087645;28;19916;-53
2023/05/26 13:54:05;;;;;;;;;;;22.20;45.80;;;;;;5093048;28;19908;-54
2023/05/26 13:56:30;;;;;;;;;;;22.20;46.20;;;;;;5054320;28;19961;-54
2023/05/26 13:58:56;;;;;;;;;;;22.20;46.00;;;;;;5083250;28;19916;-55
2023/05/26 14:01:24;;;;;;;;;;;22.20;45.80;;;;;;5066358;28;20385;-53
2023/05/26 14:03:50;;;;;;;;;;;22.30;45.80;;;;;;5054077;28;20001;-54
2023/05/26 14:06:15;;;;;;;;;;;22.30;46.00;;;;;;5081636;28;19912;-53
2023/05/26 14:08:40;;;;;;;;;;;22.30;46.00;;;;;;5099434;28;19912;-54
2023/05/26 14:11:06;;;;;;;;;;;22.30;46.00;;;;;;5081188;28;19926;-52